createdAt,value
2023-02-04T00:03:53.158Z,102711.13
2023-02-04T00:07:55.885Z,102708.25
2023-02-04T00:11:58.633Z,102715.34
2023-02-04T00:16:03.081Z,102714.16
2023-02-04T00:20:06.762Z,102729.72
2023-02-04T00:24:09.982Z,102727.19
2023-02-04T00:28:12.845Z,102730.91
2023-02-04T00:32:17.145Z,102740.88
2023-02-04T00:36:20.046Z,102750.69
2023-02-04T00:40:22.916Z,102749.84
2023-02-04T00:44:25.705Z,102756.75
2023-02-04T00:48:30.104Z,102757.47
2023-02-04T00:52:33.314Z,102753.88
2023-02-04T00:56:36.310Z,102743.41
2023-02-04T01:00:39.169Z,102758.44
2023-02-04T01:04:43.379Z,102760.84
2023-02-04T01:08:46.154Z,102766.75
2023-02-04T01:12:48.969Z,102786.69
2023-02-04T01:16:51.961Z,102792.78
2023-02-04T01:20:56.376Z,102797.19
2023-02-04T01:24:59.218Z,102801.75
2023-02-04T01:29:17.606Z,102808.31
2023-02-04T01:33:20.373Z,102808.31
2023-02-04T01:37:24.555Z,102800.22
2023-02-04T01:41:28.909Z,102809.16
2023-02-04T01:45:35.430Z,102807.66
2023-02-04T01:49:39.334Z,102811.56
2023-02-04T01:53:44.048Z,102820.84
2023-02-04T01:57:47.482Z,102814.59
2023-02-04T02:01:52.277Z,102809.16
2023-02-04T02:05:56.528Z,102818.66
2023-02-04T02:10:04.075Z,102824.56
2023-02-04T02:14:07.098Z,102841.63
2023-02-04T02:18:11.078Z,102832.00
2023-02-04T02:22:19.177Z,102840.78
2023-02-04T02:26:25.585Z,102849.91
2023-02-04T02:30:30.415Z,102851.44
2023-02-04T02:34:34.990Z,102847.88
2023-02-04T02:38:39.217Z,102849.25
2023-02-04T02:42:44.964Z,102856.00
2023-02-04T02:46:47.997Z,102858.69
2023-02-04T02:50:51.854Z,102853.47
2023-02-04T02:54:56.767Z,102857.53
2023-02-04T02:59:14.213Z,102855.84
2023-02-04T03:03:22.220Z,102856.19
2023-02-04T03:07:25.444Z,102856.34
2023-02-04T03:11:29.882Z,102860.91
2023-02-04T03:15:35.016Z,102853.47
2023-02-04T03:19:38.653Z,102869.56
2023-02-04T03:23:41.765Z,102875.97
2023-02-04T03:27:46.947Z,102876.31
2023-02-04T03:31:51.174Z,102879.31
2023-02-04T03:35:54.040Z,102887.09
2023-02-04T03:39:56.830Z,102876.13
2023-02-04T03:43:59.568Z,102881.53
2023-02-04T03:48:03.749Z,102883.38
2023-02-04T03:52:07.126Z,102901.28
2023-02-04T03:56:10.449Z,102906.88
2023-02-04T04:00:14.724Z,102918.53
2023-02-04T04:04:19.132Z,102921.06
2023-02-04T04:08:21.883Z,102920.06
2023-02-04T04:12:24.706Z,102922.75
2023-02-04T04:16:27.474Z,102924.25
2023-02-04T04:20:31.952Z,102926.28
2023-02-04T04:24:34.892Z,102932.22
2023-02-04T04:28:37.601Z,102932.44
2023-02-04T04:32:40.515Z,102926.31
2023-02-04T04:36:44.666Z,102935.78
2023-02-04T04:40:47.518Z,102942.03
2023-02-04T04:44:50.224Z,102945.75
2023-02-04T04:48:52.982Z,102950.16
2023-02-04T04:52:57.123Z,102961.28
2023-02-04T04:56:59.926Z,102956.38
2023-02-04T05:01:02.771Z,102946.69
2023-02-04T05:05:06.011Z,102950.59
2023-02-04T05:09:10.529Z,102958.53
2023-02-04T05:13:13.585Z,102969.50
2023-02-04T05:17:16.530Z,102987.59
2023-02-04T05:21:19.356Z,102991.31
2023-02-04T05:25:24.081Z,102997.41
2023-02-04T05:29:26.906Z,102998.06
2023-02-04T05:33:29.688Z,103013.84
2023-02-04T05:37:32.608Z,103005.03
2023-02-04T05:41:36.746Z,102996.44
2023-02-04T05:45:39.564Z,103013.03
2023-02-04T05:49:42.390Z,103025.19
2023-02-04T05:53:45.175Z,103020.25
2023-02-04T05:57:49.284Z,103019.56
2023-02-04T06:01:52.302Z,103022.78
2023-02-04T06:05:55.338Z,103026.03
2023-02-04T06:09:59.548Z,103027.72
2023-02-04T06:14:05.032Z,103022.50
2023-02-04T06:18:09.144Z,103015.22
2023-02-04T06:22:11.874Z,103025.53
2023-02-04T06:26:15.088Z,103038.38
2023-02-04T06:30:20.066Z,103043.47
2023-02-04T06:34:22.853Z,103045.03
2023-02-04T06:38:25.654Z,103053.13
2023-02-04T06:42:29.522Z,103058.22
2023-02-04T06:46:34.516Z,103065.31
2023-02-04T06:50:37.478Z,103069.88
2023-02-04T06:54:40.304Z,103063.75
2023-02-04T06:58:43.076Z,103079.34
2023-02-04T07:02:47.276Z,103070.00
2023-02-04T07:06:50.112Z,103083.19
2023-02-04T07:10:54.580Z,103092.84
2023-02-04T07:14:57.538Z,103092.06
2023-02-04T07:19:01.707Z,103096.13
2023-02-04T07:23:04.637Z,103087.03
2023-02-04T07:27:07.648Z,103097.97
2023-02-04T07:31:10.511Z,103100.69
2023-02-04T07:35:14.680Z,103105.81
2023-02-04T07:39:17.478Z,103104.94
2023-02-04T07:43:20.209Z,103113.91
2023-02-04T07:47:22.992Z,103122.53
2023-02-04T07:51:27.914Z,103132.06
2023-02-04T07:55:31.009Z,103138.88
2023-02-04T07:59:33.798Z,103140.84
2023-02-04T08:03:37.185Z,103148.69
2023-02-04T08:07:41.351Z,103154.09
2023-02-04T08:11:44.137Z,103154.94
2023-02-04T08:15:46.962Z,103168.69
2023-02-04T08:19:49.788Z,103169.75
2023-02-04T08:23:53.925Z,103171.81
2023-02-04T08:27:56.852Z,103184.13
2023-02-04T08:31:59.773Z,103184.97
2023-02-04T08:36:02.578Z,103188.13
2023-02-04T08:40:07.746Z,103184.97
2023-02-04T08:44:10.520Z,103181.25
2023-02-04T08:48:13.261Z,103191.28
2023-02-04T08:52:16.056Z,103189.31
2023-02-04T08:56:20.600Z,103189.84
2023-02-04T09:00:23.967Z,103190.53
2023-02-04T09:04:28.353Z,103199.72
2023-02-04T09:08:31.110Z,103211.75
2023-02-04T09:12:35.967Z,103219.09
2023-02-04T09:16:38.776Z,103220.06
2023-02-04T09:20:41.654Z,103222.16
2023-02-04T09:24:44.449Z,103239.44
2023-02-04T09:28:48.679Z,103234.22
2023-02-04T09:32:51.491Z,103227.50
2023-02-04T09:36:54.285Z,103239.84
2023-02-04T09:41:00.770Z,103241.06
2023-02-04T09:45:05.478Z,103232.44
2023-02-04T09:49:12.138Z,103232.47
2023-02-04T09:53:18.158Z,103229.91
2023-02-04T09:57:21.731Z,103239.03
2023-02-04T10:01:29.115Z,103236.13
2023-02-04T10:05:33.619Z,103245.44
2023-02-04T10:09:36.427Z,103249.75
2023-02-04T10:13:43.320Z,103262.34
2023-02-04T10:17:48.599Z,103264.06
2023-02-04T10:21:51.489Z,103279.00
2023-02-04T10:25:54.395Z,103286.66
2023-02-04T10:29:57.799Z,103295.28
2023-02-04T10:34:24.917Z,103291.72
2023-02-04T10:38:27.783Z,103284.81
2023-02-04T10:42:32.093Z,103287.00
2023-02-04T10:46:34.967Z,103289.84
2023-02-04T10:50:39.067Z,103293.94
2023-02-04T10:54:41.904Z,103289.38
2023-02-04T10:58:45.129Z,103288.06
2023-02-04T11:02:53.026Z,103274.69
2023-02-04T11:06:57.158Z,103280.13
2023-02-04T11:11:02.821Z,103285.22
2023-02-04T11:15:07.299Z,103291.69
2023-02-04T11:19:14.458Z,103295.94
2023-02-04T11:23:32.780Z,103298.84
2023-02-04T11:27:41.009Z,103296.78
2023-02-04T11:31:57.069Z,103293.56
2023-02-04T11:36:04.595Z,103290.00
2023-02-04T11:40:24.433Z,103282.03
2023-02-04T11:44:27.614Z,103274.41
2023-02-04T11:48:30.555Z,103274.06
2023-02-04T11:52:36.394Z,103284.44
2023-02-04T11:56:41.666Z,103285.78
2023-02-04T12:00:45.667Z,103282.75
2023-02-04T12:04:56.452Z,103294.31
2023-02-04T12:09:07.076Z,103295.16
2023-02-04T12:13:25.044Z,103295.31
2023-02-04T12:17:27.864Z,103296.16
2023-02-04T12:21:31.019Z,103297.19
2023-02-04T12:25:34.092Z,103306.50
2023-02-04T12:29:38.360Z,103297.34
2023-02-04T12:33:41.052Z,103295.63
2023-02-04T12:37:44.203Z,103297.50
2023-02-04T12:41:46.951Z,103289.88
2023-02-04T12:45:51.088Z,103281.75
2023-02-04T12:49:53.931Z,103284.78
2023-02-04T12:53:56.682Z,103297.50
2023-02-04T12:57:59.799Z,103299.69
2023-02-04T13:02:04.074Z,103304.63
2023-02-04T13:06:07.226Z,103295.81
2023-02-04T13:10:10.886Z,103294.63
2023-02-04T13:14:13.655Z,103296.97
2023-02-04T13:18:18.302Z,103297.84
2023-02-04T13:22:21.130Z,103287.31
2023-02-04T13:26:23.985Z,103289.38
2023-02-04T13:30:26.787Z,103291.06
2023-02-04T13:34:30.954Z,103283.41
2023-02-04T13:38:33.926Z,103288.53
2023-02-04T13:42:38.275Z,103279.00
2023-02-04T13:46:41.056Z,103277.00
2023-02-04T13:50:45.220Z,103273.75
2023-02-04T13:54:48.159Z,103266.81
2023-02-04T13:58:51.198Z,103270.00
2023-02-04T14:02:53.944Z,103269.31
2023-02-04T14:06:58.179Z,103265.75
2023-02-04T14:11:01.014Z,103268.63
2023-02-04T14:15:04.073Z,103282.06
2023-02-04T14:19:07.349Z,103284.44
2023-02-04T14:23:12.033Z,103286.31
2023-02-04T14:27:14.838Z,103289.69
2023-02-04T14:31:17.779Z,103296.16
2023-02-04T14:35:21.517Z,103286.66
2023-02-04T14:39:25.674Z,103289.38
2023-02-04T14:43:28.465Z,103292.41
2023-02-04T14:47:31.303Z,103294.47
2023-02-04T14:51:34.082Z,103298.03
2023-02-04T14:55:38.214Z,103304.97
2023-02-04T14:59:41.025Z,103313.63
2023-02-04T15:03:43.953Z,103312.97
2023-02-04T15:07:46.682Z,103302.41
2023-02-04T15:11:51.145Z,103304.41
2023-02-04T15:15:53.956Z,103308.31
2023-02-04T15:19:57.086Z,103319.16
2023-02-04T15:23:59.882Z,103320.69
2023-02-04T15:28:04.097Z,103315.25
2023-02-04T15:32:07.018Z,103326.09
2023-02-04T15:36:09.974Z,103327.13
2023-02-04T15:40:13.354Z,103323.19
2023-02-04T15:44:17.514Z,103328.41
2023-02-04T15:48:21.007Z,103331.97
2023-02-04T15:52:25.416Z,103327.06
2023-02-04T15:56:28.493Z,103323.66
2023-02-04T16:07:07.966Z,103325.22
2023-02-04T16:11:10.736Z,103328.69
2023-02-04T16:15:13.592Z,103328.16
2023-02-04T16:19:16.374Z,103332.69
2023-02-04T16:23:20.513Z,103332.69
2023-02-04T16:39:38.919Z,103349.59
2023-02-04T16:43:41.649Z,103355.47
2023-02-04T16:47:44.422Z,103350.88
2023-02-04T16:51:47.408Z,103355.50
2023-02-04T16:55:51.539Z,103362.69
2023-02-04T16:59:54.262Z,103371.19
2023-02-04T17:03:58.928Z,103364.84
2023-02-04T17:08:01.702Z,103359.50
2023-02-04T17:12:06.125Z,103353.59
2023-02-04T17:16:08.872Z,103350.44
2023-02-04T17:20:13.446Z,103362.28
2023-02-04T17:24:16.166Z,103369.94
2023-02-04T17:28:20.396Z,103378.44
2023-02-04T17:32:23.306Z,103370.03
2023-02-04T17:36:26.170Z,103379.34
2023-02-04T17:40:29.006Z,103383.53
2023-02-04T17:44:33.119Z,103382.81
2023-02-04T17:48:36.023Z,103389.84
2023-02-04T17:52:39.003Z,103389.59
2023-02-04T17:56:41.739Z,103378.53
2023-02-04T18:00:48.110Z,103387.69
2023-02-04T18:04:51.281Z,103383.91
2023-02-04T18:08:56.409Z,103381.78
2023-02-04T18:13:00.214Z,103386.09
2023-02-04T18:17:11.598Z,103389.38
2023-02-04T18:21:20.905Z,103392.09
2023-02-04T18:25:24.466Z,103383.19
2023-02-04T18:29:33.709Z,103380.34
2023-02-04T18:33:41.495Z,103384.75
2023-02-04T18:37:48.884Z,103394.06
2023-02-04T18:41:52.616Z,103394.31
2023-02-04T18:46:00.135Z,103397.84
2023-02-04T18:50:23.366Z,103394.31
2023-02-04T18:54:34.812Z,103384.09
2023-02-04T18:58:40.939Z,103392.03
2023-02-04T19:02:49.264Z,103387.34
2023-02-04T19:06:54.943Z,103386.91
2023-02-04T19:10:59.362Z,103394.56
2023-02-04T19:15:02.346Z,103399.41
2023-02-04T19:19:23.857Z,103386.47
2023-02-04T19:23:27.943Z,103398.38
2023-02-04T19:27:36.184Z,103394.97
2023-02-04T19:31:38.957Z,103395.97
2023-02-04T19:35:43.543Z,103388.75
2023-02-04T19:39:50.698Z,103396.69
2023-02-04T19:43:57.999Z,103389.44
2023-02-04T19:48:02.523Z,103398.38
2023-02-04T19:52:20.258Z,103396.97
2023-02-04T19:56:36.461Z,103398.78
2023-02-04T20:00:46.692Z,103396.78
2023-02-04T20:04:54.025Z,103397.69
2023-02-04T20:09:01.929Z,103407.28
2023-02-04T20:13:20.112Z,103407.41
2023-02-04T20:17:45.822Z,103394.91
2023-02-04T20:22:03.821Z,103402.00
2023-02-04T22:03:46.765Z,103354.22
2023-02-04T22:07:50.255Z,103355.53
2023-02-04T22:11:53.088Z,103360.91
2023-02-04T22:15:55.855Z,103363.47
2023-02-04T22:20:00.194Z,103366.47
2023-02-04T22:24:02.980Z,103362.63
2023-02-04T22:28:05.836Z,103369.59
2023-02-04T22:32:08.985Z,103365.50
2023-02-04T22:36:13.191Z,103367.47
2023-02-04T22:40:15.924Z,103373.41
2023-02-04T22:44:18.773Z,103360.94
2023-02-04T22:48:21.555Z,103367.47
2023-02-04T22:52:25.745Z,103362.94
2023-02-04T22:56:28.804Z,103375.97
2023-02-04T23:00:31.794Z,103366.06
2023-02-04T23:04:34.605Z,103369.59
2023-02-04T23:08:38.834Z,103360.38
2023-02-04T23:12:41.573Z,103352.56
2023-02-04T23:16:44.330Z,103357.50
2023-02-04T23:20:47.147Z,103354.56
2023-02-04T23:24:51.709Z,103359.78
2023-02-04T23:28:54.452Z,103343.59
2023-02-04T23:32:57.254Z,103339.06
2023-02-04T23:37:00.099Z,103322.00
2023-02-04T23:41:04.238Z,103323.16
2023-02-04T23:45:07.834Z,103323.72
2023-02-04T23:49:10.913Z,103321.59
2023-02-04T23:53:13.787Z,103314.22
2023-02-04T23:57:17.858Z,103314.63
